createdAt,value
2018-05-21T00:02:09.502Z,26.60
2018-05-21T00:04:38.386Z,28.37
2018-05-21T00:07:07.244Z,32.77
2018-05-21T00:09:36.129Z,25.47
2018-05-21T00:12:05.023Z,53.63
2018-05-21T00:14:33.871Z,29.50
2018-05-21T00:17:02.722Z,26.50
2018-05-21T00:19:31.582Z,31.57
2018-05-21T00:22:00.446Z,27.90
2018-05-21T00:24:29.321Z,27.13
2018-05-21T00:26:58.174Z,25.97
2018-05-21T00:29:27.132Z,20.47
2018-05-21T00:31:55.986Z,18.37
2018-05-21T00:34:24.857Z,30.47
2018-05-21T00:36:53.738Z,28.97
2018-05-21T00:39:22.600Z,23.33
2018-05-21T00:41:51.469Z,27.40
2018-05-21T00:44:20.327Z,38.63
2018-05-21T00:46:49.221Z,22.90
2018-05-21T00:49:18.074Z,22.47
2018-05-21T00:51:46.946Z,26.90
2018-05-21T00:54:15.820Z,27.83
2018-05-21T00:56:44.672Z,24.63
2018-05-21T00:59:13.522Z,22.50
2018-05-21T01:01:42.395Z,25.90
2018-05-21T01:04:11.278Z,28.57
2018-05-21T01:06:40.177Z,28.00
2018-05-21T01:09:09.041Z,21.60
2018-05-21T01:11:37.901Z,22.77
2018-05-21T01:14:06.750Z,23.60
2018-05-21T01:16:35.598Z,24.07
2018-05-21T01:19:04.478Z,22.23
2018-05-21T01:21:33.331Z,18.77
2018-05-21T01:24:02.303Z,21.80
2018-05-21T01:26:31.114Z,22.90
2018-05-21T01:28:59.966Z,23.97
2018-05-21T01:31:28.816Z,19.40
2018-05-21T01:33:57.698Z,22.17
2018-05-21T01:36:26.566Z,22.13
2018-05-21T01:38:55.420Z,18.80
2018-05-21T01:41:24.277Z,23.40
2018-05-21T01:43:53.130Z,17.73
2018-05-21T01:46:22.006Z,20.70
2018-05-21T01:48:50.882Z,27.33
2018-05-21T01:51:19.745Z,18.40
2018-05-21T01:53:48.602Z,15.30
2018-05-21T01:56:17.451Z,20.10
2018-05-21T01:58:46.322Z,20.53
2018-05-21T02:01:15.210Z,17.47
2018-05-21T02:03:44.066Z,21.63
2018-05-21T02:06:13.071Z,26.03
2018-05-21T02:08:41.954Z,17.53
2018-05-21T02:11:10.782Z,26.00
2018-05-21T02:13:39.636Z,24.40
2018-05-21T02:16:08.499Z,22.60
2018-05-21T02:18:37.387Z,21.17
2018-05-21T02:21:06.266Z,21.30
2018-05-21T02:23:35.169Z,19.37
2018-05-21T02:26:04.022Z,19.40
2018-05-21T02:28:32.890Z,17.70
2018-05-21T02:31:01.753Z,16.63
2018-05-21T02:33:30.646Z,17.37
2018-05-21T02:35:59.494Z,17.00
2018-05-21T02:38:28.718Z,21.27
2018-05-21T02:40:57.597Z,18.43
2018-05-21T02:43:26.451Z,23.10
2018-05-21T02:45:55.348Z,21.73
2018-05-21T02:48:24.197Z,19.63
2018-05-21T02:50:53.042Z,16.57
2018-05-21T02:53:21.926Z,18.53
2018-05-21T02:55:50.784Z,16.50
2018-05-21T02:58:19.653Z,14.73
2018-05-21T03:00:48.525Z,17.03
2018-05-21T03:03:17.394Z,23.43
2018-05-21T03:05:46.267Z,19.90
2018-05-21T03:08:15.121Z,16.63
2018-05-21T03:10:44.018Z,18.07
2018-05-21T03:13:12.885Z,17.10
2018-05-21T03:15:41.755Z,18.77
2018-05-21T03:18:10.641Z,18.53
2018-05-21T03:20:39.505Z,14.60
2018-05-21T03:23:08.383Z,16.73
2018-05-21T03:25:37.234Z,13.80
2018-05-21T03:28:06.106Z,16.33
2018-05-21T03:30:34.978Z,15.73
2018-05-21T03:33:03.838Z,16.93
2018-05-21T03:35:32.701Z,16.40
2018-05-21T03:38:01.556Z,16.17
2018-05-21T03:40:30.423Z,18.13
2018-05-21T03:42:59.278Z,18.17
2018-05-21T03:45:28.130Z,15.93
2018-05-21T03:47:56.985Z,17.60
2018-05-21T03:50:25.867Z,17.57
2018-05-21T03:52:54.750Z,20.70
2018-05-21T03:55:23.595Z,25.13
2018-05-21T03:57:52.462Z,16.87
2018-05-21T04:00:27.277Z,16.47
2018-05-21T04:03:02.118Z,17.20
2018-05-21T04:05:30.997Z,18.67
2018-05-21T04:08:00.774Z,20.50
2018-05-21T04:10:29.630Z,23.50
2018-05-21T04:12:58.481Z,21.20
2018-05-21T04:15:27.393Z,16.90
2018-05-21T04:17:56.246Z,24.43
2018-05-21T04:20:25.099Z,20.20
2018-05-21T04:22:53.954Z,16.60
2018-05-21T04:25:22.830Z,18.53
2018-05-21T04:27:51.702Z,15.17
2018-05-21T04:30:20.563Z,18.90
2018-05-21T04:32:49.431Z,33.13
2018-05-21T04:35:18.290Z,19.33
2018-05-21T04:37:47.162Z,22.00
2018-05-21T04:40:16.019Z,17.40
2018-05-21T04:42:44.868Z,20.87
2018-05-21T04:45:13.734Z,19.63
2018-05-21T04:47:42.578Z,19.57
2018-05-21T04:50:11.457Z,22.83
2018-05-21T04:52:40.340Z,17.10
2018-05-21T04:55:09.194Z,29.13
2018-05-21T04:57:38.357Z,15.63
2018-05-21T05:00:07.264Z,18.53
2018-05-21T05:02:36.117Z,15.77
2018-05-21T05:05:05.026Z,20.77
2018-05-21T05:07:33.914Z,18.70
2018-05-21T05:10:02.795Z,19.67
2018-05-21T05:12:31.666Z,18.93
2018-05-21T05:15:00.539Z,20.47
2018-05-21T05:17:29.386Z,21.60
2018-05-21T05:19:58.238Z,19.70
2018-05-21T05:22:27.110Z,15.97
2018-05-21T05:24:55.978Z,23.57
2018-05-21T05:27:24.830Z,36.47
2018-05-21T05:29:53.682Z,16.57
2018-05-21T05:32:22.559Z,24.67
2018-05-21T05:34:51.421Z,19.27
2018-05-21T05:37:20.266Z,21.07
2018-05-21T05:39:49.117Z,23.77
2018-05-21T05:42:17.993Z,18.87
2018-05-21T05:44:47.421Z,27.07
2018-05-21T05:47:16.269Z,25.83
2018-05-21T05:49:45.113Z,20.50
2018-05-21T05:52:13.982Z,22.77
2018-05-21T05:54:42.842Z,24.60
2018-05-21T05:57:11.697Z,28.93
2018-05-21T05:59:40.593Z,24.33
2018-05-21T06:02:09.454Z,24.00
2018-05-21T06:04:38.303Z,27.10
2018-05-21T06:07:07.165Z,26.17
2018-05-21T06:09:36.017Z,26.10
2018-05-21T06:12:04.908Z,21.57
2018-05-21T06:14:33.757Z,21.30
2018-05-21T06:17:02.610Z,26.20
2018-05-21T06:19:31.481Z,28.67
2018-05-21T06:22:00.350Z,23.50
2018-05-21T06:24:29.206Z,26.00
2018-05-21T06:26:58.059Z,23.50
2018-05-21T06:29:26.921Z,26.17
2018-05-21T06:31:55.764Z,23.97
2018-05-21T06:34:24.718Z,29.63
2018-05-21T06:36:53.493Z,25.30
2018-05-21T06:39:22.329Z,34.10
2018-05-21T06:41:51.201Z,32.03
2018-05-21T06:44:20.065Z,28.33
2018-05-21T06:46:48.911Z,32.87
2018-05-21T06:49:17.808Z,26.20
2018-05-21T06:51:46.640Z,26.53
2018-05-21T06:54:15.497Z,24.33
2018-05-21T06:56:44.343Z,24.30
2018-05-21T06:59:13.178Z,32.40
2018-05-21T07:01:42.040Z,23.70
2018-05-21T07:04:10.889Z,23.10
2018-05-21T07:06:39.740Z,26.87
2018-05-21T07:09:08.597Z,29.17
2018-05-21T07:11:37.545Z,26.73
2018-05-21T07:14:06.413Z,31.57
2018-05-21T07:16:35.251Z,33.50
2018-05-21T07:19:04.106Z,26.70
2018-05-21T07:21:32.997Z,41.23
2018-05-21T07:24:01.863Z,28.63
2018-05-21T07:26:30.721Z,39.47
2018-05-21T07:28:59.568Z,37.43
2018-05-21T07:31:28.458Z,32.80
2018-05-21T07:33:57.307Z,34.60
2018-05-21T07:36:26.204Z,36.47
2018-05-21T07:38:55.041Z,31.83
2018-05-21T07:41:23.898Z,32.83
2018-05-21T07:43:52.745Z,32.30
2018-05-21T07:46:21.597Z,37.73
2018-05-21T07:48:50.466Z,38.80
2018-05-21T07:51:19.393Z,28.40
2018-05-21T07:53:48.230Z,29.40
2018-05-21T07:56:17.091Z,30.10
2018-05-21T07:58:45.946Z,33.67
2018-05-21T08:01:14.810Z,24.23
2018-05-21T08:03:43.674Z,20.47
2018-05-21T08:06:12.518Z,27.20
2018-05-21T08:08:41.364Z,54.60
2018-05-21T08:11:10.238Z,448.73
2018-05-21T08:13:39.121Z,236.80
2018-05-21T08:16:08.227Z,72.77
2018-05-21T08:18:37.105Z,31.80
2018-05-21T08:21:05.981Z,115.20
2018-05-21T08:23:34.832Z,42.07
2018-05-21T08:26:03.702Z,111.77
2018-05-21T08:28:32.569Z,61.93
2018-05-21T08:31:01.431Z,43.07
2018-05-21T08:33:30.316Z,77.40
2018-05-21T08:35:59.161Z,44.80
2018-05-21T08:38:28.013Z,76.13
2018-05-21T08:40:56.877Z,22.97
2018-05-21T08:43:25.742Z,44.77
2018-05-21T08:45:54.601Z,29.87
2018-05-21T08:48:23.526Z,24.70
2018-05-21T08:50:52.365Z,28.67
2018-05-21T08:53:21.209Z,31.37
2018-05-21T08:55:50.063Z,29.93
2018-05-21T08:58:18.953Z,30.77
2018-05-21T09:00:47.833Z,23.13
2018-05-21T09:03:16.686Z,27.50
2018-05-21T09:05:45.534Z,26.27
2018-05-21T09:08:14.409Z,30.33
2018-05-21T09:10:43.269Z,25.97
2018-05-21T09:13:12.141Z,48.17
2018-05-21T09:15:41.046Z,24.43
2018-05-21T09:18:09.910Z,34.77
2018-05-21T09:20:38.758Z,31.43
2018-05-21T09:23:07.684Z,26.87
2018-05-21T09:25:36.501Z,32.53
2018-05-21T09:28:05.374Z,29.77
2018-05-21T09:30:34.222Z,31.13
2018-05-21T09:33:03.073Z,26.83
2018-05-21T09:35:31.946Z,29.03
2018-05-21T09:38:00.797Z,19.43
2018-05-21T09:40:29.650Z,21.43
2018-05-21T09:42:58.505Z,23.00
2018-05-21T09:45:27.383Z,20.03
2018-05-21T09:47:56.234Z,18.23
2018-05-21T09:50:25.089Z,18.20
2018-05-21T09:52:53.938Z,22.30
2018-05-21T09:55:22.824Z,25.63
2018-05-21T09:57:51.682Z,20.50
2018-05-21T10:00:24.405Z,25.37
2018-05-21T10:02:53.273Z,27.80
2018-05-21T10:05:22.121Z,27.33
2018-05-21T10:07:50.983Z,31.60
2018-05-21T10:10:19.905Z,33.93
2018-05-21T10:12:48.726Z,26.13
2018-05-21T10:15:17.597Z,24.03
2018-05-21T10:17:46.462Z,18.57
2018-05-21T10:20:15.322Z,21.90
2018-05-21T10:22:44.170Z,17.67
2018-05-21T10:25:13.049Z,24.40
2018-05-21T10:27:41.922Z,19.53
2018-05-21T10:30:10.793Z,23.80
2018-05-21T10:32:39.674Z,21.27
2018-05-21T10:35:08.575Z,227.80
2018-05-21T10:37:37.455Z,169.20
2018-05-21T10:40:06.330Z,115.30
2018-05-21T10:42:35.196Z,80.80
2018-05-21T10:45:04.095Z,74.03
2018-05-21T10:47:32.950Z,69.47
2018-05-21T10:50:01.817Z,53.63
2018-05-21T10:52:30.696Z,52.27
2018-05-21T10:54:59.550Z,29.63
2018-05-21T10:57:28.497Z,46.23
2018-05-21T10:59:57.298Z,30.13
2018-05-21T11:02:26.185Z,30.03
2018-05-21T11:04:55.785Z,36.87
2018-05-21T11:07:25.572Z,28.13
2018-05-21T11:09:54.446Z,32.03
2018-05-21T11:12:23.293Z,22.87
2018-05-21T11:14:52.177Z,27.20
2018-05-21T11:17:21.022Z,25.03
2018-05-21T11:19:49.873Z,23.60
2018-05-21T11:22:18.745Z,46.50
2018-05-21T11:24:47.623Z,28.20
2018-05-21T11:27:16.472Z,20.53
2018-05-21T11:29:45.334Z,19.37
2018-05-21T11:32:14.202Z,22.27
2018-05-21T11:34:43.063Z,21.47
2018-05-21T11:37:11.949Z,23.00
2018-05-21T11:39:40.821Z,26.90
2018-05-21T11:42:09.661Z,28.77
2018-05-21T11:44:38.554Z,26.40
2018-05-21T11:47:07.420Z,26.10
2018-05-21T11:49:36.260Z,25.40
2018-05-21T11:52:05.117Z,29.40
2018-05-21T11:54:33.966Z,29.10
2018-05-21T11:57:02.838Z,23.60
2018-05-21T11:59:31.685Z,25.10
2018-05-21T12:02:00.605Z,26.60
2018-05-21T12:04:29.402Z,24.80
2018-05-21T12:06:58.283Z,20.00
2018-05-21T12:09:27.126Z,20.17
2018-05-21T12:11:55.985Z,20.40
2018-05-21T12:14:24.855Z,17.37
2018-05-21T12:16:53.721Z,17.00
2018-05-21T12:19:22.565Z,18.53
2018-05-21T12:21:51.444Z,15.50
2018-05-21T12:24:20.295Z,15.17
2018-05-21T12:26:49.460Z,23.80
2018-05-21T12:29:18.364Z,19.20
2018-05-21T12:31:47.216Z,17.37
2018-05-21T12:34:16.094Z,14.43
2018-05-21T12:36:44.966Z,15.40
2018-05-21T12:39:13.833Z,16.63
2018-05-21T12:41:42.685Z,13.93
2018-05-21T12:44:11.534Z,13.73
2018-05-21T12:46:40.422Z,14.47
2018-05-21T12:49:09.267Z,14.80
2018-05-21T12:51:38.130Z,12.53
2018-05-21T12:54:06.978Z,20.07
2018-05-21T12:56:35.836Z,13.97
2018-05-21T12:59:04.706Z,20.70
2018-05-21T13:01:33.606Z,15.40
2018-05-21T13:04:02.483Z,12.53
2018-05-21T13:06:31.374Z,11.50
2018-05-21T13:09:00.542Z,14.47
2018-05-21T13:11:29.662Z,16.60
2018-05-21T13:13:58.512Z,14.50
2018-05-21T13:16:27.392Z,17.40
2018-05-21T13:18:56.275Z,12.53
2018-05-21T13:21:25.161Z,15.60
2018-05-21T13:23:54.057Z,14.97
2018-05-21T13:26:22.921Z,20.00
2018-05-21T13:28:51.786Z,28.03
2018-05-21T13:31:20.644Z,21.13
2018-05-21T13:33:49.493Z,15.20
2018-05-21T13:36:18.361Z,18.53
2018-05-21T13:38:47.213Z,17.50
2018-05-21T13:41:16.058Z,20.07
2018-05-21T13:43:44.926Z,16.50
2018-05-21T13:46:13.792Z,13.43
2018-05-21T13:48:42.674Z,16.03
2018-05-21T13:51:11.539Z,16.53
2018-05-21T13:53:40.387Z,19.70
2018-05-21T13:56:09.234Z,22.50
2018-05-21T13:58:38.098Z,17.43
2018-05-21T14:01:06.941Z,15.10
2018-05-21T14:03:35.820Z,21.23
2018-05-21T14:06:04.694Z,22.87
2018-05-21T14:08:33.546Z,18.50
2018-05-21T14:11:02.431Z,15.10
2018-05-21T14:13:31.279Z,15.30
2018-05-21T14:16:00.129Z,20.57
2018-05-21T14:18:29.007Z,15.73
2018-05-21T14:20:57.855Z,18.70
2018-05-21T14:23:26.758Z,14.73
2018-05-21T14:25:55.766Z,22.03
2018-05-21T14:28:24.625Z,11.63
2018-05-21T14:30:53.499Z,11.50
2018-05-21T14:33:22.360Z,13.87
2018-05-21T14:35:51.226Z,15.33
2018-05-21T14:38:20.094Z,19.37
2018-05-21T14:40:48.964Z,17.10
2018-05-21T14:43:17.815Z,14.40
2018-05-21T14:45:46.682Z,22.00
2018-05-21T14:48:15.550Z,13.90
2018-05-21T14:50:44.407Z,16.93
2018-05-21T14:53:13.258Z,24.53
2018-05-21T14:55:42.133Z,25.90
2018-05-21T14:58:10.981Z,17.43
2018-05-21T15:00:39.854Z,15.30
2018-05-21T15:03:08.722Z,17.60
2018-05-21T15:05:37.567Z,19.13
2018-05-21T15:08:06.434Z,16.33
2018-05-21T15:10:35.328Z,335.07
2018-05-21T15:13:04.303Z,34.83
2018-05-21T15:15:33.198Z,23.87
2018-05-21T15:18:02.107Z,30.33
2018-05-21T15:20:30.973Z,24.33
2018-05-21T15:22:59.817Z,21.30
2018-05-21T15:25:28.669Z,18.33
2018-05-21T15:27:57.544Z,28.13
2018-05-21T15:30:26.404Z,23.43
2018-05-21T15:32:55.254Z,10.83
2018-05-21T15:35:24.142Z,24.77
2018-05-21T15:37:53.156Z,15.50
2018-05-21T15:40:22.043Z,14.70
2018-05-21T15:42:50.898Z,19.03
2018-05-21T15:45:19.778Z,17.40
2018-05-21T15:47:48.665Z,27.23
2018-05-21T15:50:17.541Z,34.73
2018-05-21T15:52:46.394Z,17.17
2018-05-21T15:55:15.277Z,20.40
2018-05-21T15:57:44.226Z,23.93
2018-05-21T16:00:12.986Z,20.30
2018-05-21T16:02:41.861Z,25.00
2018-05-21T16:05:10.726Z,23.60
2018-05-21T16:07:39.577Z,17.90
2018-05-21T16:10:08.422Z,25.83
2018-05-21T16:12:37.268Z,15.50
2018-05-21T16:15:06.113Z,24.00
2018-05-21T16:17:34.979Z,28.40
2018-05-21T16:20:03.847Z,21.33
2018-05-21T16:22:32.698Z,22.70
2018-05-21T16:25:01.569Z,13.20
2018-05-21T16:27:30.433Z,15.63
2018-05-21T16:29:59.280Z,20.40
2018-05-21T16:32:28.149Z,18.07
2018-05-21T16:34:57.021Z,19.27
2018-05-21T16:37:25.875Z,17.90
2018-05-21T16:39:54.728Z,13.00
2018-05-21T16:42:23.592Z,19.67
2018-05-21T16:44:52.462Z,18.40
2018-05-21T16:47:21.329Z,14.10
2018-05-21T16:49:50.216Z,16.67
2018-05-21T16:52:19.088Z,14.60
2018-05-21T16:54:48.545Z,20.93
2018-05-21T16:57:17.413Z,21.00
2018-05-21T16:59:46.261Z,19.20
2018-05-21T17:02:15.106Z,19.20
2018-05-21T17:04:43.974Z,20.80
2018-05-21T17:07:12.856Z,19.97
2018-05-21T17:09:41.718Z,15.87
2018-05-21T17:12:10.594Z,18.50
2018-05-21T17:14:39.465Z,13.97
2018-05-21T17:17:08.306Z,16.87
2018-05-21T17:19:37.173Z,49.67
2018-05-21T17:22:06.040Z,497.27
2018-05-21T17:24:34.885Z,267.33
2018-05-21T17:27:03.740Z,27.80
2018-05-21T17:29:32.602Z,24.47
2018-05-21T17:32:01.481Z,81.00
2018-05-21T17:34:30.314Z,24.80
2018-05-21T17:36:59.146Z,65.73
2018-05-21T17:39:27.987Z,90.07
2018-05-21T17:41:56.850Z,50.03
2018-05-21T17:44:25.683Z,303.77
2018-05-21T17:46:54.522Z,25.10
2018-05-21T17:49:23.351Z,117.07
2018-05-21T17:51:52.210Z,43.67
2018-05-21T17:54:21.058Z,16.87
2018-05-21T17:56:49.914Z,23.03
2018-05-21T17:59:18.798Z,360.43
2018-05-21T18:01:47.665Z,250.87
2018-05-21T18:04:16.522Z,844.27
2018-05-21T18:06:45.401Z,821.13
2018-05-21T18:09:14.285Z,698.80
2018-05-21T18:11:43.149Z,473.53
2018-05-21T18:14:12.037Z,443.00
2018-05-21T18:16:40.897Z,80.70
2018-05-21T18:19:09.750Z,56.90
2018-05-21T18:21:38.945Z,107.63
2018-05-21T18:24:07.827Z,162.73
2018-05-21T18:26:36.673Z,59.10
2018-05-21T18:29:05.569Z,284.67
2018-05-21T18:31:34.422Z,379.37
2018-05-21T18:34:03.270Z,56.90
2018-05-21T18:36:32.148Z,104.00
2018-05-21T18:39:01.005Z,80.30
2018-05-21T18:41:29.905Z,112.40
2018-05-21T18:43:58.781Z,101.67
2018-05-21T18:46:27.639Z,263.03
2018-05-21T18:48:56.497Z,850.80
2018-05-21T18:51:25.364Z,545.20
2018-05-21T18:53:54.270Z,655.83
2018-05-21T18:56:23.146Z,420.30
2018-05-21T18:58:52.093Z,454.33
2018-05-21T19:01:21.044Z,103.73
2018-05-21T19:03:49.897Z,34.53
2018-05-21T19:06:18.822Z,170.90
2018-05-21T19:08:47.707Z,245.03
2018-05-21T19:11:16.565Z,95.73
2018-05-21T19:13:45.464Z,53.80
2018-05-21T19:16:14.338Z,88.87
2018-05-21T19:18:43.291Z,108.10
2018-05-21T19:21:12.356Z,18.00
2018-05-21T19:23:41.509Z,70.00
2018-05-21T19:26:11.116Z,83.37
2018-05-21T19:28:40.827Z,74.00
2018-05-21T19:31:11.151Z,22.90
2018-05-21T19:33:41.167Z,18.07
2018-05-21T19:36:11.184Z,17.37
2018-05-21T19:38:41.202Z,13.87
2018-05-21T19:41:11.217Z,15.70
2018-05-21T19:43:41.029Z,15.47
2018-05-21T19:46:11.148Z,19.90
2018-05-21T19:48:41.169Z,16.40
2018-05-21T19:51:11.183Z,17.90
2018-05-21T19:53:41.199Z,95.20
2018-05-21T19:56:11.113Z,122.40
2018-05-21T19:58:41.028Z,33.83
2018-05-21T20:01:11.146Z,103.03
2018-05-21T20:03:40.959Z,87.87
2018-05-21T20:06:10.978Z,61.60
2018-05-21T20:08:40.992Z,29.93
2018-05-21T20:11:11.015Z,244.70
2018-05-21T20:13:41.112Z,32.53
2018-05-21T20:16:10.847Z,90.17
2018-05-21T20:18:40.447Z,298.10
2018-05-21T20:21:09.748Z,568.83
2018-05-21T20:23:38.942Z,208.03
2018-05-21T20:26:07.871Z,299.13
2018-05-21T20:28:36.785Z,103.33
2018-05-21T20:31:05.665Z,48.20
2018-05-21T20:33:34.532Z,162.13
2018-05-21T20:36:03.428Z,31.53
2018-05-21T20:38:32.297Z,32.73
2018-05-21T20:41:01.153Z,68.60
2018-05-21T20:43:30.039Z,58.23
2018-05-21T20:45:58.895Z,60.47
2018-05-21T20:48:27.742Z,86.43
2018-05-21T20:50:56.629Z,29.47
2018-05-21T20:53:25.497Z,28.87
2018-05-21T20:55:54.362Z,90.33
2018-05-21T20:58:23.210Z,142.80
2018-05-21T21:00:52.068Z,203.50
2018-05-21T21:05:49.754Z,33.77
2018-05-21T21:08:18.619Z,30.60
2018-05-21T21:10:47.472Z,55.43
2018-05-21T21:13:16.327Z,30.13
2018-05-21T21:15:45.186Z,52.90
2018-05-21T21:18:14.084Z,174.50
2018-05-21T21:20:42.991Z,139.70
2018-05-21T21:23:11.879Z,45.10
2018-05-21T21:25:40.758Z,29.37
2018-05-21T21:28:09.717Z,47.37
2018-05-21T21:30:38.565Z,29.73
2018-05-21T21:33:07.415Z,35.00
2018-05-21T21:35:36.289Z,62.07
2018-05-21T21:38:05.162Z,89.53
2018-05-21T21:40:34.018Z,177.87
2018-05-21T21:43:02.869Z,35.27
2018-05-21T21:45:31.741Z,37.60
2018-05-21T21:48:00.911Z,42.33
2018-05-21T21:50:30.009Z,42.23
2018-05-21T21:52:59.202Z,38.40
2018-05-21T21:55:28.050Z,35.03
2018-05-21T21:57:56.918Z,109.33
2018-05-21T22:00:25.779Z,50.03
2018-05-21T22:02:54.646Z,98.03
2018-05-21T22:05:23.506Z,29.77
2018-05-21T22:07:52.359Z,45.80
2018-05-21T22:10:21.257Z,337.87
2018-05-21T22:12:50.223Z,66.33
2018-05-21T22:17:59.297Z,215.30
2018-05-21T22:20:28.165Z,43.70
2018-05-21T22:22:57.018Z,187.50
2018-05-21T22:25:25.939Z,30.13
2018-05-21T22:27:54.805Z,88.23
2018-05-21T22:30:23.690Z,33.83
2018-05-21T22:32:52.542Z,27.83
2018-05-21T22:35:21.401Z,77.07
2018-05-21T22:37:50.374Z,26.63
2018-05-21T22:40:19.226Z,38.73
2018-05-21T22:42:48.517Z,43.10
2018-05-21T22:45:17.393Z,22.40
2018-05-21T22:47:46.285Z,30.33
2018-05-21T22:50:15.130Z,30.97
2018-05-21T22:52:43.998Z,26.00
2018-05-21T22:55:12.855Z,25.80
2018-05-21T22:57:41.715Z,24.53
2018-05-21T23:00:10.610Z,30.00
2018-05-21T23:02:39.485Z,23.10
2018-05-21T23:05:08.351Z,25.03
2018-05-21T23:07:37.215Z,23.77
2018-05-21T23:10:06.067Z,18.97
2018-05-21T23:12:34.955Z,24.53
2018-05-21T23:15:03.826Z,21.60
2018-05-21T23:17:32.682Z,26.70
2018-05-21T23:20:01.541Z,25.90
2018-05-21T23:22:36.193Z,21.80
2018-05-21T23:25:05.046Z,21.07
2018-05-21T23:27:33.898Z,30.47
2018-05-21T23:30:02.775Z,19.90
2018-05-21T23:32:31.626Z,22.60
2018-05-21T23:35:00.504Z,26.80
2018-05-21T23:37:29.373Z,23.53
2018-05-21T23:39:58.234Z,21.77
2018-05-21T23:42:27.118Z,23.83
2018-05-21T23:44:55.967Z,32.20
2018-05-21T23:47:24.818Z,26.10
2018-05-21T23:49:53.699Z,23.57
2018-05-21T23:52:22.571Z,26.50
2018-05-21T23:54:51.434Z,22.63
2018-05-21T23:57:20.284Z,24.63
2018-05-21T23:59:49.142Z,25.60
